Time;durP1;ratioP1;P1;durP2;ratioP2;P2;SDS_P1;SDS_P2;PMS_P1;PMS_P2;Temp;Humidity;BMP_temperature;BMP_pressure;BME280_temperature;BME280_humidity;BME280_pressure;Samples;Min_cycle;Max_cycle;Signal;HPM_P1;HPM_P2
2022/12/26 00:00:28;;;;;;;5.50;2.50;;;10.30;88.70;;;;;;5062084;28;20048;-60
2022/12/26 00:02:55;;;;;;;5.95;2.80;;;10.30;88.60;;;;;;5067871;28;20811;-60
2022/12/26 00:05:22;;;;;;;5.97;2.38;;;10.30;88.50;;;;;;5065181;28;20550;-66
2022/12/26 00:07:49;;;;;;;4.93;2.78;;;10.30;88.50;;;;;;5064427;28;20125;-64
2022/12/26 00:10:16;;;;;;;4.63;2.30;;;10.30;88.50;;;;;;5065763;28;20040;-62
2022/12/26 00:12:44;;;;;;;5.28;2.58;;;10.30;88.40;;;;;;5066839;28;20039;-60
2022/12/26 00:15:15;;;;;;;4.18;2.30;;;10.40;88.40;;;;;;5065553;28;20083;-64
2022/12/26 00:17:48;;;;;;;6.47;2.30;;;10.40;88.30;;;;;;5070448;28;20049;-66
2022/12/26 00:20:17;;;;;;;4.68;2.33;;;10.30;88.30;;;;;;5069232;28;20450;-61
2022/12/26 00:22:44;;;;;;;3.97;2.20;;;10.40;88.20;;;;;;5068195;28;20048;-59
2022/12/26 00:25:12;;;;;;;5.65;2.15;;;10.40;88.10;;;;;;5070542;28;20450;-60
2022/12/26 00:27:39;;;;;;;4.45;2.28;;;10.40;88.00;;;;;;5068459;28;20056;-60
2022/12/26 00:30:09;;;;;;;5.45;2.65;;;10.40;87.90;;;;;;5070242;28;20055;-60
2022/12/26 00:32:39;;;;;;;4.57;2.53;;;10.50;87.80;;;;;;5070034;28;20486;-60
2022/12/26 00:35:06;;;;;;;4.95;2.40;;;10.50;87.80;;;;;;5070030;28;20036;-59
2022/12/26 00:37:33;;;;;;;5.45;2.42;;;10.50;87.60;;;;;;5067228;28;20052;-59
2022/12/26 00:40:03;;;;;;;6.03;2.80;;;10.60;87.60;;;;;;5068969;28;20430;-59
2022/12/26 00:42:32;;;;;;;4.85;2.28;;;10.60;87.50;;;;;;5059200;28;20060;-60
2022/12/26 00:44:59;;;;;;;5.07;2.20;;;10.60;87.60;;;;;;5057770;28;20049;-60
2022/12/26 00:47:27;;;;;;;4.43;1.90;;;10.60;87.50;;;;;;5056590;28;20064;-59
2022/12/26 00:49:54;;;;;;;4.55;2.22;;;10.60;87.50;;;;;;5056251;28;20059;-59
2022/12/26 00:52:21;;;;;;;4.47;2.05;;;10.60;87.40;;;;;;5054043;28;20040;-60
2022/12/26 00:54:50;;;;;;;5.00;2.28;;;10.60;87.40;;;;;;5054564;28;20790;-59
2022/12/26 00:57:17;;;;;;;3.90;2.20;;;10.60;87.30;;;;;;5053231;28;20037;-60
2022/12/26 00:59:43;;;;;;;5.57;2.42;;;10.60;87.30;;;;;;5054741;28;20053;-59
2022/12/26 01:04:53;;;;;;;5.15;2.10;;;10.60;87.30;;;;;;5053501;28;20072;-59
2022/12/26 01:07:21;;;;;;;5.15;1.88;;;10.60;87.30;;;;;;5055133;28;20049;-60
2022/12/26 01:09:48;;;;;;;6.28;2.38;;;10.60;87.30;;;;;;5049822;28;20056;-60
2022/12/26 01:12:15;;;;;;;4.10;2.22;;;10.60;87.20;;;;;;5054235;28;20045;-60
2022/12/26 01:14:45;;;;;;;4.90;2.20;;;10.60;87.20;;;;;;5054348;28;20041;-60
2022/12/26 01:17:11;;;;;;;5.05;2.20;;;10.60;87.20;;;;;;5048683;28;20552;-59
2022/12/26 01:19:38;;;;;;;5.75;2.30;;;10.60;87.10;;;;;;5052263;28;20059;-59
2022/12/26 01:22:07;;;;;;;5.15;2.25;;;10.60;87.00;;;;;;5051881;28;20046;-59
2022/12/26 01:24:34;;;;;;;5.82;2.17;;;10.60;87.20;;;;;;5049804;28;20051;-60
2022/12/26 01:27:01;;;;;;;4.05;2.20;;;10.60;87.00;;;;;;5054187;28;20040;-59
2022/12/26 01:29:28;;;;;;;4.13;2.15;;;10.60;87.10;;;;;;5050116;28;20474;-60
2022/12/26 01:31:55;;;;;;;5.63;2.33;;;10.60;87.10;;;;;;5050997;28;20110;-59
2022/12/26 01:34:22;;;;;;;5.00;2.30;;;10.60;87.10;;;;;;5055156;28;20049;-59
2022/12/26 01:36:49;;;;;;;5.32;2.38;;;10.70;87.00;;;;;;5053769;28;20064;-59
2022/12/26 01:39:17;;;;;;;4.88;2.08;;;10.70;86.80;;;;;;5053719;28;20041;-59
2022/12/26 01:41:44;;;;;;;4.10;2.08;;;10.70;86.80;;;;;;5054163;28;20059;-59
2022/12/26 01:44:44;;;;;;;5.57;2.10;;;10.70;86.70;;;;;;5051363;28;20056;-59
2022/12/26 01:47:12;;;;;;;5.35;1.95;;;10.80;86.70;;;;;;5052206;28;20048;-59
2022/12/26 01:49:43;;;;;;;5.95;2.28;;;10.80;86.70;;;;;;5051841;28;20052;-60
2022/12/26 01:52:15;;;;;;;4.07;2.08;;;10.70;86.60;;;;;;5053052;28;20094;-65
2022/12/26 01:54:47;;;;;;;5.18;2.45;;;10.70;86.60;;;;;;5049635;28;20499;-67
2022/12/26 01:57:19;;;;;;;4.85;2.15;;;10.80;86.60;;;;;;5048187;28;20041;-70
2022/12/26 01:59:47;;;;;;;3.95;2.10;;;10.80;86.50;;;;;;5052076;28;20163;-66
2022/12/26 02:02:16;;;;;;;3.50;1.95;;;10.90;86.40;;;;;;5048004;28;20033;-62
2022/12/26 02:07:33;;;;;;;4.97;1.90;;;10.90;86.30;;;;;;5054850;28;20049;-60
2022/12/26 02:10:02;;;;;;;4.20;2.00;;;10.90;86.10;;;;;;5053773;28;20048;-60
2022/12/26 02:12:32;;;;;;;4.95;2.28;;;10.90;86.00;;;;;;5055249;28;20545;-64
2022/12/26 02:15:00;;;;;;;3.55;1.70;;;10.90;86.00;;;;;;5040749;28;20041;-66
2022/12/26 02:17:29;;;;;;;4.30;1.88;;;11.00;85.90;;;;;;5047536;28;20086;-60
2022/12/26 02:20:04;;;;;;;5.35;2.03;;;11.00;85.90;;;;;;5050956;28;20053;-61
2022/12/26 02:22:55;;;;;;;4.97;2.05;;;11.00;85.90;;;;;;5056531;28;20052;-61
2022/12/26 02:25:46;;;;;;;4.05;1.85;;;11.00;85.80;;;;;;5054054;28;20051;-61
2022/12/26 02:28:51;;;;;;;4.68;2.20;;;11.00;85.70;;;;;;5055289;28;20460;-61
2022/12/26 02:31:26;;;;;;;4.47;2.17;;;11.00;85.70;;;;;;5033073;28;20040;-62
2022/12/26 02:34:05;;;;;;;5.25;1.92;;;11.00;85.60;;;;;;5055259;28;20068;-63
2022/12/26 02:36:52;;;;;;;5.80;2.00;;;11.00;85.60;;;;;;5054434;28;20059;-62
2022/12/26 02:39:34;;;;;;;3.83;1.55;;;11.00;85.60;;;;;;5052275;28;20049;-61
2022/12/26 02:42:09;;;;;;;5.32;1.73;;;11.00;85.50;;;;;;5052978;28;20407;-63
2022/12/26 02:47:46;;;;;;;6.60;2.40;;;11.10;85.40;;;;;;5028791;28;20051;-61
2022/12/26 03:13:11;;;;;;;2.40;1.50;;;11.10;86.00;;;;;;5049440;28;20495;-61
2022/12/26 03:18:34;;;;;;;2.90;1.52;;;11.00;86.20;;;;;;5049640;28;20178;-63
2022/12/26 03:21:04;;;;;;;4.65;1.77;;;11.10;86.20;;;;;;5051770;28;20118;-59
2022/12/26 03:23:31;;;;;;;;;;;11.10;86.20;;;;;;5053299;28;20511;-59
2022/12/26 03:28:50;;;;;;;4.15;1.65;;;11.10;86.30;;;;;;5022358;28;20135;-59
2022/12/26 03:31:16;;;;;;;5.35;1.92;;;11.10;86.10;;;;;;5050639;28;20056;-59
2022/12/26 03:36:42;;;;;;;4.07;1.70;;;11.10;86.20;;;;;;5056706;28;20052;-61
2022/12/26 03:39:17;;;;;;;3.60;1.80;;;11.10;86.20;;;;;;5056376;28;20403;-60
2022/12/26 04:44:17;;;;;;;3.47;1.77;;;11.00;86.20;;;;;;5065687;28;20053;-58
2022/12/26 04:46:46;;;;;;;5.90;1.65;;;11.00;86.30;;;;;;5065815;28;20560;-58
2022/12/26 04:52:02;;;;;;;3.72;1.70;;;11.00;86.40;;;;;;5067798;28;20044;-60
2022/12/26 04:54:29;;;;;;;4.60;2.10;;;10.90;86.40;;;;;;5066013;28;20048;-60
2022/12/26 04:56:55;;;;;;;3.35;1.70;;;10.90;86.70;;;;;;5065435;28;20052;-59
2022/12/26 04:59:24;;;;;;;4.40;1.65;;;10.90;86.50;;;;;;5068237;28;20056;-59
2022/12/26 05:10:12;;;;;;;3.70;1.92;;;10.80;86.60;;;;;;5065159;28;20060;-61
2022/12/26 05:12:40;;;;;;;4.68;1.83;;;10.70;86.50;;;;;;5064278;28;20048;-61
2022/12/26 05:15:09;;;;;;;3.53;1.50;;;10.70;86.70;;;;;;5066390;28;20041;-62
2022/12/26 05:28:54;;;;;;;4.53;1.83;;;10.80;86.50;;;;;;5061177;28;20048;-60
2022/12/26 05:31:22;;;;;;;4.00;1.67;;;10.80;86.60;;;;;;5060382;28;20048;-60
2022/12/26 05:34:07;;;;;;;5.05;1.65;;;10.80;86.50;;;;;;5065267;28;20044;-65
2022/12/26 05:36:38;;;;;;;8.52;1.80;;;10.80;86.60;;;;;;5066367;28;20123;-60
2022/12/26 05:39:06;;;;;;;3.20;1.42;;;10.80;86.50;;;;;;5066893;28;20079;-61
2022/12/26 05:41:33;;;;;;;3.50;1.48;;;10.80;86.60;;;;;;5066006;28;20056;-61
2022/12/26 05:43:59;;;;;;;3.83;1.60;;;10.80;86.50;;;;;;5068158;28;20048;-61
2022/12/26 05:46:28;;;;;;;3.65;1.60;;;10.80;86.60;;;;;;5062809;28;20056;-60
2022/12/26 05:48:56;;;;;;;4.45;1.70;;;10.90;86.30;;;;;;5066258;28;20048;-60
2022/12/26 05:51:23;;;;;;;3.65;1.50;;;10.90;86.30;;;;;;5066176;28;20052;-57
2022/12/26 05:53:51;;;;;;;2.80;1.40;;;10.90;86.30;;;;;;5066879;28;20154;-57
2022/12/26 05:56:18;;;;;;;3.40;1.80;;;10.90;86.30;;;;;;5064717;28;20049;-58
2022/12/26 05:58:46;;;;;;;5.05;1.88;;;10.90;86.30;;;;;;5066473;28;20040;-58
2022/12/26 06:01:15;;;;;;;3.83;1.65;;;10.90;86.40;;;;;;5064364;28;20074;-59
2022/12/26 06:03:47;;;;;;;3.17;1.55;;;10.90;86.40;;;;;;5065708;28;20052;-57
2022/12/26 06:06:15;;;;;;;3.50;1.58;;;10.90;86.30;;;;;;5058939;28;20068;-57
2022/12/26 06:08:42;;;;;;;5.63;1.85;;;10.90;86.20;;;;;;5066969;28;20049;-58
2022/12/26 06:11:11;;;;;;;3.38;1.40;;;10.90;86.30;;;;;;5063941;28;20052;-58
2022/12/26 06:13:38;;;;;;;3.70;1.50;;;10.90;86.20;;;;;;5060153;28;20060;-58
2022/12/26 06:16:06;;;;;;;2.90;1.50;;;10.90;86.20;;;;;;5062967;28;20071;-58
2022/12/26 06:18:33;;;;;;;4.25;1.70;;;10.90;86.20;;;;;;5063145;28;20084;-58
2022/12/26 06:21:04;;;;;;;3.67;1.38;;;10.90;86.10;;;;;;5064021;28;20067;-59
2022/12/26 06:23:30;;;;;;;4.35;1.70;;;10.90;86.20;;;;;;5065418;28;20389;-58
2022/12/26 06:25:57;;;;;;;5.10;1.67;;;11.00;86.10;;;;;;5067289;28;20464;-58
2022/12/26 06:28:25;;;;;;;4.50;1.45;;;11.00;86.00;;;;;;5064312;28;20519;-58
2022/12/26 06:30:52;;;;;;;6.15;1.80;;;11.00;86.00;;;;;;5064356;28;20445;-58
2022/12/26 06:33:19;;;;;;;2.85;1.70;;;11.00;86.00;;;;;;5066033;28;20483;-58
2022/12/26 06:35:46;;;;;;;4.03;1.48;;;11.00;85.90;;;;;;5065900;28;20051;-57
2022/12/26 06:38:15;;;;;;;3.35;1.30;;;11.00;85.80;;;;;;5063571;28;20107;-57
2022/12/26 06:40:42;;;;;;;4.60;1.27;;;11.00;85.80;;;;;;5064215;28;20052;-60
2022/12/26 06:43:10;;;;;;;3.75;1.60;;;11.10;85.70;;;;;;5068270;28;20048;-58
2022/12/26 06:45:37;;;;;;;2.80;1.30;;;11.10;85.60;;;;;;5066530;28;20065;-58
2022/12/26 06:48:04;;;;;;;6.32;1.63;;;11.10;85.60;;;;;;5069740;28;20127;-58
2022/12/26 06:50:31;;;;;;;2.90;1.38;;;11.10;85.60;;;;;;5066818;28;20043;-58
2022/12/26 06:52:58;;;;;;;4.80;1.70;;;11.20;85.50;;;;;;5070638;28;20041;-58
2022/12/26 06:55:26;;;;;;;2.55;1.20;;;11.10;85.60;;;;;;5067539;28;20056;-59
2022/12/26 06:57:53;;;;;;;3.42;1.40;;;11.10;85.60;;;;;;5070747;28;20056;-58
2022/12/26 07:00:21;;;;;;;4.03;1.52;;;11.20;85.60;;;;;;5069505;28;20045;-58
2022/12/26 07:02:50;;;;;;;3.58;1.70;;;11.10;85.70;;;;;;5067017;28;20067;-58
2022/12/26 07:05:17;;;;;;;4.32;1.77;;;11.20;85.60;;;;;;5069432;28;20049;-58
2022/12/26 07:07:44;;;;;;;5.28;1.65;;;11.20;85.70;;;;;;5070663;28;20052;-57
2022/12/26 07:10:11;;;;;;;4.43;1.85;;;11.10;85.90;;;;;;5068193;28;20055;-58
2022/12/26 07:12:39;;;;;;;4.88;2.40;;;11.10;86.20;;;;;;5070882;28;20430;-58
2022/12/26 07:15:08;;;;;;;5.13;2.22;;;11.10;86.50;;;;;;5066240;28;20040;-60
2022/12/26 07:17:36;;;;;;;4.45;2.15;;;11.10;86.80;;;;;;5070025;28;20414;-57
2022/12/26 07:20:05;;;;;;;6.68;2.10;;;11.10;86.90;;;;;;5071047;28;20049;-58
2022/12/26 07:22:32;;;;;;;5.53;2.00;;;11.00;87.10;;;;;;5064168;28;20051;-58
2022/12/26 07:24:59;;;;;;;4.80;1.77;;;11.10;87.30;;;;;;5069068;28;20067;-58
2022/12/26 07:27:26;;;;;;;5.43;2.03;;;11.00;87.30;;;;;;5070680;28;20048;-57
2022/12/26 07:29:54;;;;;;;4.82;1.63;;;11.00;87.50;;;;;;5066444;28;20574;-59
2022/12/26 07:32:21;;;;;;;3.17;1.70;;;11.00;87.40;;;;;;5068074;28;20403;-58
2022/12/26 07:34:48;;;;;;;4.63;1.63;;;11.00;87.50;;;;;;5067001;28;20053;-58
2022/12/26 07:37:15;;;;;;;4.38;1.75;;;11.00;87.40;;;;;;5070781;28;20048;-57
2022/12/26 07:39:41;;;;;;;2.42;1.20;;;11.00;87.50;;;;;;5068656;28;20049;-58
2022/12/26 07:42:08;;;;;;;4.40;1.75;;;11.00;87.50;;;;;;5061171;28;20381;-60
2022/12/26 07:44:37;;;;;;;4.80;1.75;;;11.00;87.50;;;;;;5056252;28;20053;-59
2022/12/26 07:47:05;;;;;;;4.78;2.03;;;10.90;87.50;;;;;;5050888;28;20064;-58
2022/12/26 07:49:32;;;;;;;4.28;1.88;;;11.00;87.60;;;;;;5057772;28;20041;-58
2022/12/26 07:52:00;;;;;;;4.18;1.77;;;11.00;87.60;;;;;;5055677;28;20065;-58
2022/12/26 07:54:28;;;;;;;4.63;1.90;;;11.00;87.70;;;;;;5057002;28;20060;-59
2022/12/26 07:56:56;;;;;;;3.83;1.70;;;11.00;87.70;;;;;;5056335;28;20069;-59
2022/12/26 07:59:23;;;;;;;3.65;1.60;;;11.00;87.80;;;;;;5053353;28;20056;-59
2022/12/26 08:01:50;;;;;;;4.35;1.80;;;11.10;87.80;;;;;;5050807;28;20053;-67
2022/12/26 08:04:18;;;;;;;4.15;1.73;;;11.10;87.90;;;;;;5060064;28;20515;-67
2022/12/26 08:06:46;;;;;;;5.00;1.75;;;11.00;88.00;;;;;;5048951;28;20132;-68
2022/12/26 08:09:15;;;;;;;4.47;1.88;;;11.00;88.10;;;;;;5054848;28;20136;-67
2022/12/26 08:11:44;;;;;;;4.70;1.90;;;11.00;88.10;;;;;;5053490;28;20068;-68
2022/12/26 08:14:12;;;;;;;3.83;1.60;;;11.00;88.20;;;;;;5053972;28;20057;-65
2022/12/26 08:16:40;;;;;;;3.80;1.83;;;11.00;88.50;;;;;;5049430;28;20483;-66
2022/12/26 08:19:09;;;;;;;3.38;1.65;;;11.00;88.60;;;;;;5056184;28;20052;-68
2022/12/26 08:21:37;;;;;;;3.55;1.63;;;11.00;88.70;;;;;;5050713;28;20052;-68
2022/12/26 08:24:06;;;;;;;5.53;1.63;;;10.90;89.10;;;;;;5049887;28;20052;-66
2022/12/26 08:26:33;;;;;;;3.83;1.63;;;11.00;89.30;;;;;;5052998;28;20096;-59
2022/12/26 08:29:00;;;;;;;3.05;1.42;;;10.90;89.30;;;;;;5056615;28;20098;-60
2022/12/26 08:31:28;;;;;;;4.25;1.75;;;10.90;89.30;;;;;;5055683;28;20072;-60
2022/12/26 08:33:56;;;;;;;4.75;1.70;;;10.90;89.50;;;;;;5053576;28;20049;-60
2022/12/26 08:36:24;;;;;;;5.53;1.95;;;10.90;89.60;;;;;;5057401;28;20041;-59
2022/12/26 08:38:52;;;;;;;4.03;1.60;;;10.90;90.10;;;;;;5055775;28;20045;-60
2022/12/26 08:41:19;;;;;;;4.18;1.63;;;10.90;90.00;;;;;;5055084;28;20052;-59
2022/12/26 08:43:49;;;;;;;3.50;1.65;;;10.90;90.20;;;;;;5055037;28;20036;-59
2022/12/26 08:46:17;;;;;;;5.03;1.65;;;10.90;90.30;;;;;;5050406;28;20474;-65
2022/12/26 08:48:44;;;;;;;3.88;2.03;;;10.90;90.30;;;;;;5053528;28;20060;-65
2022/12/26 08:51:14;;;;;;;3.65;1.63;;;10.90;90.60;;;;;;5057772;28;20052;-67
2022/12/26 08:53:41;;;;;;;3.70;1.70;;;10.90;90.50;;;;;;5056085;28;20146;-66
2022/12/26 08:56:13;;;;;;;4.35;1.85;;;10.90;90.70;;;;;;5053978;28;20041;-65
2022/12/26 08:58:41;;;;;;;4.25;1.50;;;10.90;90.50;;;;;;5054934;28;20689;-65
2022/12/26 09:01:09;;;;;;;3.42;2.00;;;10.80;90.50;;;;;;5055236;28;20075;-68
2022/12/26 09:03:36;;;;;;;4.88;1.60;;;10.90;90.80;;;;;;5055357;28;20044;-64
2022/12/26 09:06:04;;;;;;;5.10;1.95;;;10.90;90.70;;;;;;5054059;28;20514;-60
2022/12/26 09:08:33;;;;;;;3.88;1.70;;;10.90;90.80;;;;;;5054355;28;20049;-60
2022/12/26 09:11:02;;;;;;;4.13;1.67;;;10.90;90.80;;;;;;5056811;28;20051;-60
2022/12/26 09:13:31;;;;;;;4.10;1.60;;;10.90;90.10;;;;;;5053637;28;20625;-60
2022/12/26 09:16:05;;;;;;;6.00;2.08;;;10.90;90.70;;;;;;5058226;28;20444;-60
2022/12/26 09:18:32;;;;;;;4.55;1.90;;;10.90;90.40;;;;;;5053210;28;20048;-60
2022/12/26 09:21:00;;;;;;;3.40;1.67;;;10.90;91.10;;;;;;5056585;28;20051;-60
2022/12/26 09:23:29;;;;;;;4.63;1.88;;;10.90;91.20;;;;;;5053634;28;20045;-60
2022/12/26 09:26:03;;;;;;;4.68;2.20;;;10.90;91.10;;;;;;5054192;28;20052;-60
2022/12/26 09:28:31;;;;;;;5.97;2.22;;;11.00;90.90;;;;;;5052593;28;20053;-60
2022/12/26 09:31:00;;;;;;;5.63;2.30;;;10.90;90.90;;;;;;5050234;28;20129;-61
2022/12/26 09:33:27;;;;;;;5.97;2.35;;;10.90;91.00;;;;;;5052800;28;20049;-61
2022/12/26 09:35:54;;;;;;;4.68;1.88;;;11.00;91.00;;;;;;5056110;28;20049;-59
2022/12/26 09:38:22;;;;;;;4.55;2.03;;;11.00;90.80;;;;;;5054468;28;20051;-59
2022/12/26 09:41:00;;;;;;;4.35;2.45;;;11.00;90.70;;;;;;5054412;28;20048;-64
2022/12/26 09:43:42;;;;;;;5.30;2.35;;;11.00;90.90;;;;;;5066932;28;20098;-65
2022/12/26 09:46:16;;;;;;;7.80;2.63;;;11.00;91.00;;;;;;5065790;28;20046;-63
2022/12/26 09:48:52;;;;;;;6.03;2.80;;;10.90;91.10;;;;;;5066025;28;20056;-64
2022/12/26 09:51:19;;;;;;;6.97;3.15;;;11.00;90.80;;;;;;5064072;28;20063;-64
2022/12/26 09:53:47;;;;;;;6.90;2.65;;;11.00;90.90;;;;;;5066921;28;20041;-65
2022/12/26 09:56:17;;;;;;;6.03;2.38;;;10.90;90.90;;;;;;5062876;28;20438;-63
2022/12/26 09:58:47;;;;;;;;;;;11.00;91.00;;;;;;5063926;28;20048;-64
2022/12/26 10:01:17;;;;;;;4.20;1.92;;;11.00;90.70;;;;;;5063961;28;20565;-63
2022/12/26 10:03:46;;;;;;;4.88;1.85;;;11.00;90.70;;;;;;5067185;28;20056;-64
2022/12/26 10:06:16;;;;;;;4.65;2.15;;;11.00;90.80;;;;;;5067476;28;20056;-63
2022/12/26 10:09:14;;;;;;;4.60;1.70;;;11.00;90.80;;;;;;5068143;28;20068;-63
2022/12/26 10:11:54;;;;;;;4.35;1.58;;;11.00;90.80;;;;;;5064035;28;20048;-64
2022/12/26 10:14:40;;;;;;;4.25;1.95;;;11.00;90.70;;;;;;5065866;28;20145;-63
2022/12/26 10:17:16;;;;;;;4.00;1.33;;;11.00;90.40;;;;;;5065494;28;20043;-64
2022/12/26 10:19:57;;;;;;;4.03;1.90;;;11.00;90.50;;;;;;5067151;28;20060;-63
2022/12/26 10:22:43;;;;;;;6.13;1.77;;;11.00;90.60;;;;;;5069649;28;20126;-63
2022/12/26 10:25:17;;;;;;;5.43;1.50;;;11.00;90.60;;;;;;5071481;28;20391;-62
2022/12/26 10:27:47;;;;;;;3.30;1.58;;;11.00;90.50;;;;;;5068521;28;20040;-64
2022/12/26 10:30:20;;;;;;;3.30;1.63;;;11.00;90.50;;;;;;5069035;28;20127;-63
2022/12/26 10:32:53;;;;;;;3.50;1.40;;;11.00;90.60;;;;;;5070374;28;20044;-63
2022/12/26 10:35:28;;;;;;;3.88;1.55;;;11.00;90.50;;;;;;5072366;28;20044;-63
2022/12/26 10:38:01;;;;;;;4.40;1.55;;;11.00;90.70;;;;;;5071925;28;20052;-63
2022/12/26 10:40:35;;;;;;;3.70;1.83;;;10.90;90.60;;;;;;5070150;28;20048;-63
2022/12/26 10:43:20;;;;;;;3.75;1.75;;;11.00;90.40;;;;;;5056474;28;20045;-63
2022/12/26 10:45:53;;;;;;;3.58;1.60;;;11.00;90.60;;;;;;5054930;28;20095;-65
2022/12/26 10:48:28;;;;;;;4.30;1.90;;;11.00;90.50;;;;;;5055774;28;20044;-61
2022/12/26 10:50:56;;;;;;;2.65;1.52;;;11.10;90.50;;;;;;5050269;28;20045;-63
2022/12/26 10:53:22;;;;;;;3.33;1.40;;;11.00;90.50;;;;;;5053316;28;20044;-63
2022/12/26 10:55:49;;;;;;;4.75;1.83;;;11.00;90.50;;;;;;5058185;28;20045;-63
2022/12/26 10:58:19;;;;;;;2.47;1.38;;;11.00;90.50;;;;;;5054616;28;20041;-63
2022/12/26 11:00:48;;;;;;;3.70;1.70;;;11.10;90.60;;;;;;5053627;28;20519;-63
2022/12/26 11:03:17;;;;;;;3.78;1.60;;;11.00;90.60;;;;;;5056667;28;20053;-64
2022/12/26 11:05:48;;;;;;;4.15;1.70;;;11.00;90.50;;;;;;5059069;28;20415;-63
2022/12/26 11:08:19;;;;;;;5.00;1.98;;;11.00;90.50;;;;;;5056037;28;20045;-63
2022/12/26 11:11:01;;;;;;;5.75;2.20;;;11.10;90.60;;;;;;5057698;28;20057;-62
2022/12/26 11:13:32;;;;;;;3.83;1.77;;;11.00;90.60;;;;;;5056393;28;20045;-66
2022/12/26 11:16:00;;;;;;;4.07;2.45;;;11.00;90.50;;;;;;5054559;28;20049;-63
2022/12/26 11:18:34;;;;;;;3.83;2.05;;;11.00;90.50;;;;;;5055350;28;20080;-63
2022/12/26 11:21:13;;;;;;;4.80;2.13;;;11.00;90.60;;;;;;5055021;28;20048;-64
2022/12/26 11:23:40;;;;;;;4.88;1.88;;;11.00;90.60;;;;;;5055802;28;20610;-63
2022/12/26 11:26:24;;;;;;;4.95;2.13;;;11.00;90.60;;;;;;5056743;28;20064;-62
2022/12/26 11:29:06;;;;;;;6.00;2.45;;;10.90;90.60;;;;;;5055255;28;20411;-62
2022/12/26 11:31:35;;;;;;;4.43;2.03;;;11.00;90.50;;;;;;5054973;28;20501;-62
2022/12/26 11:34:08;;;;;;;7.35;2.33;;;11.00;90.40;;;;;;5057866;28;20049;-64
2022/12/26 11:36:39;;;;;;;3.55;1.80;;;11.00;90.30;;;;;;5053773;28;20167;-60
2022/12/26 11:39:19;;;;;;;3.97;1.85;;;11.00;90.40;;;;;;5053961;28;20143;-60
2022/12/26 11:41:48;;;;;;;;;;;11.00;90.40;;;;;;5057896;28;20075;-62
2022/12/26 11:44:24;;;;;;;3.72;1.42;;;11.00;90.20;;;;;;5055283;28;20421;-61
2022/12/26 11:46:57;;;;;;;3.83;1.75;;;11.00;90.40;;;;;;5053427;28;20041;-61
2022/12/26 11:49:30;;;;;;;3.78;1.55;;;11.00;90.30;;;;;;5058679;28;20102;-60
2022/12/26 11:51:59;;;;;;;6.40;2.42;;;11.00;90.30;;;;;;5054723;28;20040;-61
2022/12/26 11:54:33;;;;;;;4.00;1.73;;;11.10;90.00;;;;;;5056224;28;20040;-62
2022/12/26 11:57:03;;;;;;;5.45;1.65;;;11.10;90.00;;;;;;5053689;28;20037;-58
2022/12/26 11:59:32;;;;;;;4.25;1.90;;;11.10;89.80;;;;;;5056965;28;20075;-59
2022/12/26 12:02:26;;;;;;;3.63;1.33;;;11.10;89.90;;;;;;5050703;28;20048;-58
2022/12/26 12:04:56;;;;;;;2.97;1.20;;;11.10;89.80;;;;;;5041743;28;20056;-61
2022/12/26 12:07:43;;;;;;;2.45;1.38;;;11.10;89.80;;;;;;5057985;28;20040;-65
2022/12/26 12:10:30;;;;;;;2.88;1.20;;;11.10;89.70;;;;;;5053843;28;20072;-66
2022/12/26 12:13:04;;;;;;;2.33;1.00;;;11.10;89.50;;;;;;5052506;28;20068;-67
2022/12/26 12:15:36;;;;;;;3.70;1.25;;;11.20;89.40;;;;;;5053009;28;20048;-67
2022/12/26 12:18:14;;;;;;;2.17;1.20;;;11.20;89.40;;;;;;5055684;28;20041;-66
2022/12/26 12:20:53;;;;;;;3.15;1.50;;;11.20;89.40;;;;;;5053931;28;20068;-67
2022/12/26 12:24:01;;;;;;;2.55;1.20;;;11.20;89.40;;;;;;5054583;28;20076;-67
2022/12/26 12:26:35;;;;;;;2.60;1.10;;;11.10;89.30;;;;;;5040031;28;20091;-64
2022/12/26 12:29:25;;;;;;;2.55;1.23;;;11.20;89.30;;;;;;5055961;28;20041;-64
2022/12/26 12:32:06;;;;;;;2.80;1.00;;;11.20;89.20;;;;;;5049409;28;20147;-61
2022/12/26 12:34:49;;;;;;;2.15;1.10;;;11.30;89.20;;;;;;5053157;28;20065;-61
2022/12/26 12:37:25;;;;;;;2.08;0.93;;;11.20;89.20;;;;;;5056000;28;20044;-60
2022/12/26 12:40:00;;;;;;;2.00;1.02;;;11.20;89.20;;;;;;5053623;28;20492;-60
2022/12/26 12:42:44;;;;;;;2.85;1.02;;;11.20;89.10;;;;;;5052320;28;20483;-61
2022/12/26 12:45:26;;;;;;;2.85;1.13;;;11.10;89.20;;;;;;5049515;28;20052;-60
2022/12/26 12:48:09;;;;;;;4.15;1.30;;;11.20;89.20;;;;;;5051737;28;20067;-60
2022/12/26 12:50:43;;;;;;;2.88;1.20;;;11.20;89.10;;;;;;5054690;28;20051;-63
2022/12/26 12:53:20;;;;;;;3.78;1.33;;;11.20;89.20;;;;;;5051854;28;20048;-63
2022/12/26 12:56:07;;;;;;;3.70;1.00;;;11.20;89.00;;;;;;5051837;28;20050;-60
2022/12/26 12:58:41;;;;;;;3.47;1.30;;;11.20;89.10;;;;;;5049149;28;20053;-61
2022/12/26 13:01:11;;;;;;;3.75;1.60;;;11.20;89.00;;;;;;5055552;28;20041;-59
2022/12/26 13:03:42;;;;;;;2.45;1.13;;;11.20;89.00;;;;;;5055682;28;20055;-60
2022/12/26 13:06:15;;;;;;;3.15;1.10;;;11.20;89.00;;;;;;5053754;28;20415;-60
2022/12/26 13:08:46;;;;;;;3.63;1.08;;;11.10;89.00;;;;;;5055490;28;20404;-58
2022/12/26 13:11:20;;;;;;;1.98;0.98;;;11.20;89.00;;;;;;5051053;28;20053;-58
2022/12/26 13:13:51;;;;;;;3.47;1.20;;;11.10;89.00;;;;;;5051737;28;20056;-59
2022/12/26 13:16:22;;;;;;;4.95;1.30;;;11.10;89.00;;;;;;5052360;28;20063;-64
2022/12/26 13:18:50;;;;;;;;;;;11.10;88.90;;;;;;5053582;28;20045;-64
2022/12/26 13:21:21;;;;;;;2.47;0.93;;;11.10;89.00;;;;;;5056674;28;19925;-63
2022/12/26 13:26:41;;;;;;;2.92;1.20;;;11.10;88.90;;;;;;5054341;28;20049;-59
2022/12/26 13:29:14;;;;;;;3.92;1.10;;;11.10;89.00;;;;;;5054650;28;20122;-59
2022/12/26 13:31:42;;;;;;;2.95;1.20;;;11.10;89.00;;;;;;5052915;28;20047;-59
2022/12/26 13:34:11;;;;;;;2.28;0.90;;;11.10;88.90;;;;;;5054107;28;20048;-59
2022/12/26 13:36:44;;;;;;;4.57;1.40;;;11.10;89.00;;;;;;5053402;28;20049;-57
2022/12/26 13:39:35;;;;;;;2.35;1.20;;;11.10;88.90;;;;;;5055185;28;20060;-59
2022/12/26 13:45:44;;;;;;;2.65;1.00;;;11.10;88.80;;;;;;5064935;28;20064;-59
2022/12/26 13:48:48;;;;;;;3.85;1.20;;;11.10;88.80;;;;;;5061739;28;20062;-59
2022/12/26 13:51:47;;;;;;;2.97;1.20;;;11.10;88.80;;;;;;5068697;28;20078;-66
2022/12/26 13:54:16;;;;;;;2.93;1.00;;;11.10;88.90;;;;;;5063376;28;20048;-67
2022/12/26 13:57:35;;;;;;;3.03;1.10;;;11.10;88.90;;;;;;5064549;28;20052;-66
2022/12/26 14:00:10;;;;;;;3.30;1.17;;;11.10;88.90;;;;;;5066606;28;20465;-64
2022/12/26 14:03:09;;;;;;;18.15;13.80;;;11.10;89.00;;;;;;5066053;28;20044;-67
2022/12/26 14:05:42;;;;;;;21.23;16.20;;;11.10;89.10;;;;;;5066346;28;20056;-66
2022/12/26 14:08:21;;;;;;;16.80;12.70;;;11.10;89.30;;;;;;5063618;28;20048;-66
2022/12/26 14:10:57;;;;;;;13.73;10.15;;;11.10;89.30;;;;;;5068840;28;20083;-65
2022/12/26 14:13:41;;;;;;;9.18;7.43;;;11.00;89.50;;;;;;5065915;28;20036;-65
2022/12/26 14:16:17;;;;;;;7.25;5.28;;;11.00;89.80;;;;;;5067017;28;20498;-65
2022/12/26 14:18:51;;;;;;;8.38;5.47;;;11.00;89.90;;;;;;5067931;28;20060;-65
2022/12/26 14:21:38;;;;;;;8.07;4.03;;;10.90;89.90;;;;;;5065011;28;20063;-65
2022/12/26 14:24:22;;;;;;;9.20;5.18;;;10.90;89.50;;;;;;5067764;28;20040;-67
2022/12/26 14:26:55;;;;;;;8.98;5.57;;;10.80;88.90;;;;;;5065598;28;20071;-61
2022/12/26 14:29:29;;;;;;;8.93;5.88;;;10.60;88.60;;;;;;5067179;28;20045;-61
2022/12/26 14:32:12;;;;;;;10.82;6.78;;;10.60;88.80;;;;;;5065986;28;20044;-61
2022/12/26 14:34:53;;;;;;;10.40;6.70;;;10.60;89.20;;;;;;5064889;28;20045;-61
2022/12/26 14:37:28;;;;;;;11.27;7.70;;;10.50;88.60;;;;;;5064482;28;20071;-62
2022/12/26 14:40:08;;;;;;;10.95;5.95;;;10.50;88.40;;;;;;5066998;28;20051;-63
2022/12/26 14:43:11;;;;;;;6.68;4.25;;;10.50;87.90;;;;;;5068196;28;20053;-62
2022/12/26 14:45:41;;;;;;;6.32;3.10;;;10.30;88.20;;;;;;5066742;28;20040;-62
2022/12/26 14:48:46;;;;;;;5.22;2.22;;;10.30;88.30;;;;;;5067479;28;20067;-62
2022/12/26 14:51:32;;;;;;;2.88;1.40;;;10.20;88.50;;;;;;5068368;28;20068;-61
2022/12/26 14:54:34;;;;;;;1.65;1.05;;;10.10;88.90;;;;;;5068254;28;20483;-61
2022/12/26 14:57:52;;;;;;;2.15;1.20;;;10.20;88.90;;;;;;5067749;28;20419;-57
2022/12/26 15:00:34;;;;;;;2.13;1.00;;;10.20;88.90;;;;;;5067881;28;20048;-58
2022/12/26 15:03:36;;;;;;;3.42;1.83;;;10.20;89.10;;;;;;5066860;28;20036;-57
2022/12/26 15:06:31;;;;;;;4.53;2.60;;;10.10;88.80;;;;;;5069016;28;20502;-57
2022/12/26 15:09:10;;;;;;;3.45;2.20;;;10.10;88.90;;;;;;5071763;28;20044;-59
2022/12/26 15:11:54;;;;;;;3.42;1.88;;;10.00;88.90;;;;;;5068906;28;20048;-65
2022/12/26 15:15:00;;;;;;;3.50;1.60;;;10.00;88.90;;;;;;5069642;28;20047;-63
2022/12/26 15:17:41;;;;;;;1.33;0.82;;;10.00;89.00;;;;;;5070720;28;20045;-64
2022/12/26 15:20:29;;;;;;;1.17;0.60;;;9.90;89.10;;;;;;5070743;28;20037;-63
2022/12/26 15:23:23;;;;;;;1.95;0.68;;;10.00;89.00;;;;;;5070237;28;20528;-65
2022/12/26 15:26:26;;;;;;;4.38;0.90;;;10.10;88.90;;;;;;5070940;28;20045;-66
2022/12/26 15:29:10;;;;;;;2.45;0.93;;;9.90;88.70;;;;;;5071408;28;20041;-65